createdAt,value
2022-11-22T07:07:52.109Z,99510.29
2022-11-22T07:10:31.492Z,99515.86
2022-11-22T07:13:11.920Z,99525.35
2022-11-22T07:19:31.938Z,99533.15
2022-11-22T07:22:25.107Z,99533.36
2022-11-22T07:25:22.189Z,99531.57
2022-11-22T07:28:10.396Z,99534.27
2022-11-22T07:30:56.023Z,99538.41
2022-11-22T07:33:31.271Z,99538.26
2022-11-22T07:36:36.563Z,99535.33
2022-11-22T07:39:22.342Z,99527.59
2022-11-22T07:42:01.605Z,99522.49
2022-11-22T07:45:00.265Z,99524.61
2022-11-22T07:48:07.398Z,99526.86
2022-11-22T07:50:50.987Z,99528.55
2022-11-22T07:53:44.791Z,99529.83
2022-11-22T07:56:27.866Z,99533.56
2022-11-22T07:59:30.171Z,99535.50
2022-11-22T08:02:31.923Z,99538.80
2022-11-22T08:05:28.666Z,99543.93
2022-11-22T08:08:23.699Z,99551.25
2022-11-22T08:11:57.755Z,99552.17
2022-11-22T08:14:51.576Z,99552.37
2022-11-22T08:17:45.124Z,99545.90
2022-11-22T08:20:51.519Z,99548.94
2022-11-22T08:23:38.644Z,99544.90
2022-11-22T08:26:26.693Z,99539.77
2022-11-22T08:29:19.532Z,99544.00
2022-11-22T08:32:26.233Z,99546.09
2022-11-22T08:35:13.375Z,99548.60
2022-11-22T08:37:48.399Z,99556.94
2022-11-22T08:40:55.186Z,99557.03
2022-11-22T08:43:38.762Z,99558.38
2022-11-22T08:46:15.323Z,99555.89
2022-11-22T08:49:00.432Z,99552.27
2022-11-22T08:51:52.195Z,99547.40
2022-11-22T08:54:37.916Z,99545.41
2022-11-22T08:57:10.563Z,99543.48
2022-11-22T09:00:17.427Z,99547.37
2022-11-22T09:02:46.862Z,99557.27
2022-11-22T09:05:32.511Z,99565.48
2022-11-22T09:08:26.061Z,99574.79
2022-11-22T09:11:20.898Z,99572.23
2022-11-22T09:14:15.174Z,99562.89
2022-11-22T09:17:14.617Z,99563.52
2022-11-22T09:19:47.584Z,99560.76
2022-11-22T09:22:28.609Z,99560.00
2022-11-22T09:25:32.358Z,99562.36
2022-11-22T09:28:07.747Z,99563.13
2022-11-22T09:31:22.783Z,99561.67
2022-11-22T09:34:04.147Z,99565.59
2022-11-22T09:37:05.365Z,99567.25
2022-11-22T09:43:50.023Z,99570.83
2022-11-22T09:46:37.950Z,99571.02
2022-11-22T09:49:52.055Z,99571.05
2022-11-22T09:52:54.660Z,99569.02
2022-11-22T09:55:57.514Z,99570.98
2022-11-22T09:58:38.219Z,99561.59
2022-11-22T10:01:54.507Z,99560.38
2022-11-22T10:08:21.435Z,99553.79
2022-11-22T10:10:54.462Z,99554.92
2022-11-22T10:13:54.575Z,99562.34
2022-11-22T10:17:01.277Z,99557.68
2022-11-22T10:19:53.086Z,99553.09
2022-11-22T10:22:41.874Z,99548.04
2022-11-22T10:25:52.888Z,99551.73
2022-11-22T10:28:43.152Z,99558.92
2022-11-22T10:32:00.371Z,99556.61
2022-11-22T10:34:59.024Z,99551.41
2022-11-22T10:37:42.668Z,99553.61
2022-11-22T10:40:50.395Z,99562.20
2022-11-22T10:43:58.594Z,99569.84
2022-11-22T10:47:07.425Z,99572.31
2022-11-22T10:50:26.939Z,99578.95
2022-11-22T10:53:22.516Z,99588.64
2022-11-22T10:56:33.738Z,99590.48
2022-11-22T10:59:44.202Z,99589.70
2022-11-22T11:03:06.876Z,99593.05
2022-11-22T11:12:32.546Z,99589.45
2022-11-22T11:15:41.561Z,99582.77
2022-11-22T11:18:36.994Z,99576.97
2022-11-22T11:21:20.174Z,99569.19
2022-11-22T11:24:24.372Z,99567.74
2022-11-22T11:27:19.138Z,99568.19
2022-11-22T11:30:20.703Z,99569.08
2022-11-22T11:33:21.759Z,99566.97
2022-11-22T11:36:42.539Z,99564.36
2022-11-22T11:39:29.658Z,99569.35
2022-11-22T11:42:32.285Z,99566.55
2022-11-22T11:45:26.780Z,99563.52
2022-11-22T11:47:56.234Z,99562.84
2022-11-22T11:51:01.371Z,99565.26
2022-11-22T11:53:42.723Z,99556.70
2022-11-22T11:56:29.095Z,99552.96
2022-11-22T11:59:32.555Z,99549.66
2022-11-22T12:02:27.712Z,99547.36
2022-11-22T12:05:32.186Z,99553.30
2022-11-22T12:08:30.055Z,99557.34
2022-11-22T12:11:25.377Z,99557.69
2022-11-22T12:14:48.726Z,99552.23
2022-11-22T12:17:47.325Z,99551.88
2022-11-22T12:20:25.428Z,99552.28
2022-11-22T12:23:33.855Z,99551.51
2022-11-22T12:26:14.709Z,99557.64
2022-11-22T12:28:44.237Z,99564.30
2022-11-22T12:31:30.208Z,99566.36
2022-11-22T12:34:22.853Z,99574.59
2022-11-22T12:37:43.003Z,99572.20
2022-11-22T12:40:39.274Z,99563.28
2022-11-22T12:43:35.709Z,99554.94
2022-11-22T12:46:33.698Z,99548.10
2022-11-22T12:49:31.041Z,99545.71
2022-11-22T12:52:45.413Z,99547.27
2022-11-22T12:56:01.442Z,99549.73
2022-11-22T12:59:10.326Z,99541.41
2022-11-22T13:02:33.133Z,99540.19
2022-11-22T13:05:48.571Z,99546.02
2022-11-22T13:12:44.314Z,99555.41
2022-11-22T13:15:39.600Z,99553.98
2022-11-22T13:18:36.997Z,99549.41
2022-11-22T13:21:27.668Z,99544.63
2022-11-22T13:24:18.273Z,99541.92
2022-11-22T13:27:23.898Z,99538.38
2022-11-22T13:30:05.946Z,99536.04
2022-11-22T13:32:49.159Z,99535.33
2022-11-22T13:35:33.305Z,99536.70
2022-11-22T13:38:16.205Z,99538.61
2022-11-22T13:40:58.436Z,99538.56
2022-11-22T13:43:53.791Z,99543.00
2022-11-22T13:47:03.849Z,99548.56
2022-11-22T13:49:50.705Z,99551.81
2022-11-22T13:52:53.492Z,99551.32
2022-11-22T13:55:42.429Z,99554.25
2022-11-22T13:59:01.331Z,99556.19
2022-11-22T14:01:40.332Z,99552.95
2022-11-22T14:04:34.436Z,99556.10
2022-11-22T14:07:36.541Z,99556.27
2022-11-22T14:10:56.379Z,99549.59
2022-11-22T14:14:00.844Z,99556.17
2022-11-22T14:17:14.383Z,99557.48
2022-11-22T14:20:12.520Z,99561.66
2022-11-22T14:23:16.418Z,99564.41
2022-11-22T14:26:51.511Z,99565.92
2022-11-22T14:30:04.519Z,99563.73
2022-11-22T14:33:11.132Z,99562.80
2022-11-22T14:36:07.002Z,99560.75
2022-11-22T14:38:57.989Z,99561.73
2022-11-22T14:41:45.615Z,99557.00
2022-11-22T14:44:39.074Z,99558.69
2022-11-22T14:47:58.751Z,99562.77
2022-11-22T14:50:59.900Z,99564.11
2022-11-22T14:53:57.732Z,99563.13
2022-11-22T14:56:46.644Z,99566.58
2022-11-22T14:59:58.537Z,99570.14
2022-11-22T15:02:47.075Z,99569.80
2022-11-22T15:09:23.873Z,99571.15
2022-11-22T15:10:02.127Z,99573.84
2022-11-22T15:13:12.491Z,99573.58
2022-11-22T15:58:25.975Z,99580.21
2022-11-22T16:01:19.502Z,99584.40
2022-11-22T16:04:22.618Z,99577.51
2022-11-22T16:07:04.123Z,99575.90
2022-11-22T16:10:06.278Z,99577.41
2022-11-22T16:12:43.940Z,99577.48
2022-11-22T16:15:43.910Z,99577.06
2022-11-22T16:18:40.016Z,99573.80
2022-11-22T16:25:13.305Z,99577.14
2022-11-22T16:28:02.379Z,99566.84
2022-11-22T16:31:02.386Z,99568.60
2022-11-22T16:33:35.604Z,99573.99
2022-11-22T16:36:32.005Z,99575.62
2022-11-22T16:39:03.183Z,99569.61
2022-11-22T16:42:02.404Z,99566.11
2022-11-22T16:44:39.410Z,99566.11
2022-11-22T16:50:35.653Z,99573.25
2022-11-22T16:53:51.731Z,99574.55
2022-11-22T16:56:39.607Z,99576.38
2022-11-22T16:59:21.950Z,99580.32
2022-11-22T17:02:00.070Z,99586.62
2022-11-22T17:04:39.445Z,99585.61
2022-11-22T17:07:33.023Z,99590.47
2022-11-22T17:10:26.773Z,99599.86
2022-11-22T17:13:05.602Z,99597.71
2022-11-22T17:15:46.873Z,99590.60
2022-11-22T17:18:26.399Z,99590.96
2022-11-22T17:21:12.489Z,99586.45
2022-11-22T17:24:06.955Z,99584.69
2022-11-22T17:27:03.283Z,99588.56
2022-11-22T17:29:51.418Z,99590.86
2022-11-22T17:32:34.433Z,99587.88
2022-11-22T17:35:13.701Z,99585.14
2022-11-22T17:37:59.067Z,99591.10
2022-11-22T17:40:59.205Z,99591.64
2022-11-22T17:54:39.150Z,99592.23
2022-11-22T17:57:08.235Z,99597.09
2022-11-22T17:59:38.971Z,99596.35
2022-11-22T18:02:22.585Z,99597.44
2022-11-22T18:05:30.989Z,99600.21
2022-11-22T18:08:01.124Z,99600.83
2022-11-22T18:10:31.820Z,99599.09
2022-11-22T18:13:20.712Z,99603.61
2022-11-22T18:16:22.706Z,99604.24
2022-11-22T18:18:57.126Z,99615.70
2022-11-22T18:21:35.225Z,99619.16
2022-11-22T18:24:09.589Z,99618.27
2022-11-22T18:26:45.329Z,99616.73
2022-11-22T18:32:06.590Z,99612.02
2022-11-22T18:34:41.131Z,99619.54
2022-11-22T18:37:20.014Z,99621.07
2022-11-22T18:39:54.023Z,99622.36
2022-11-22T18:42:36.949Z,99627.88
2022-11-22T18:45:24.005Z,99633.77
2022-11-22T18:48:03.827Z,99632.36
2022-11-22T18:50:52.575Z,99626.05
2022-11-22T18:53:30.899Z,99626.83
2022-11-22T18:56:10.233Z,99630.05
2022-11-22T18:58:56.348Z,99626.98
2022-11-22T19:01:46.940Z,99619.39
2022-11-22T19:04:34.004Z,99613.59
2022-11-22T19:07:18.293Z,99621.27
2022-11-22T19:10:06.245Z,99622.88
2022-11-22T19:12:37.504Z,99629.09
2022-11-22T19:15:17.029Z,99628.63
2022-11-22T19:17:51.885Z,99626.79
2022-11-22T19:20:53.928Z,99629.44
2022-11-22T19:26:21.713Z,99635.35
2022-11-22T19:29:13.678Z,99635.19
2022-11-22T19:31:43.496Z,99632.56
2022-11-22T19:34:19.028Z,99635.73
2022-11-22T19:36:55.829Z,99637.79
2022-11-22T19:39:34.566Z,99643.60
2022-11-22T19:42:18.450Z,99649.71
2022-11-22T19:45:16.638Z,99650.09
2022-11-22T19:48:05.685Z,99647.59
2022-11-22T19:50:53.944Z,99650.65
2022-11-22T19:54:00.636Z,99652.98
2022-11-22T19:56:51.334Z,99654.83
2022-11-22T19:59:21.328Z,99659.33
2022-11-22T20:01:55.176Z,99668.15
2022-11-22T20:04:34.241Z,99673.22
2022-11-22T20:07:23.885Z,99682.53
2022-11-22T20:10:04.939Z,99685.14
2022-11-22T20:12:41.390Z,99687.71
2022-11-22T20:15:18.807Z,99685.94
2022-11-22T20:17:48.620Z,99685.03
2022-11-22T20:20:20.447Z,99692.51
2022-11-22T20:22:51.806Z,99695.93
2022-11-22T20:25:23.921Z,99699.73
2022-11-22T20:28:00.298Z,99696.52
2022-11-22T20:30:30.394Z,99695.73
2022-11-22T20:33:01.791Z,99693.10
2022-11-22T20:35:49.359Z,99688.90
2022-11-22T20:38:30.994Z,99687.20
2022-11-22T20:41:04.849Z,99686.83
2022-11-22T20:43:35.298Z,99682.95
2022-11-22T20:46:07.528Z,99680.27
2022-11-22T20:48:38.801Z,99677.04
2022-11-22T20:51:20.880Z,99680.35
2022-11-22T20:56:49.673Z,99677.98
2022-11-22T20:59:25.254Z,99681.54
2022-11-22T21:01:56.648Z,99681.96
2022-11-22T21:04:35.161Z,99683.34
2022-11-22T21:07:23.321Z,99684.66
2022-11-22T21:10:07.666Z,99681.67
2022-11-22T21:13:22.425Z,99682.56
2022-11-22T21:16:15.592Z,99687.73
2022-11-22T21:19:11.363Z,99685.43
2022-11-22T21:21:56.596Z,99689.26
2022-11-22T21:24:35.325Z,99690.73
2022-11-22T21:27:15.084Z,99692.08
2022-11-22T21:30:08.506Z,99692.65
2022-11-22T21:32:46.580Z,99696.38
2022-11-22T21:35:16.654Z,99687.84
2022-11-22T21:37:48.116Z,99676.93
2022-11-22T21:40:18.011Z,99675.12
2022-11-22T21:42:47.043Z,99676.52
2022-11-22T21:45:23.002Z,99675.40
2022-11-22T21:48:08.355Z,99669.48
2022-11-22T21:50:41.026Z,99672.36
2022-11-22T21:53:13.506Z,99671.40
2022-11-22T21:56:03.692Z,99671.01
2022-11-22T21:58:37.994Z,99669.88
2022-11-22T22:01:13.652Z,99668.97
2022-11-22T22:03:54.428Z,99663.34
2022-11-22T22:06:27.292Z,99662.66
2022-11-22T22:09:01.345Z,99662.11
2022-11-22T22:11:31.802Z,99660.73
2022-11-22T22:14:17.866Z,99656.98
2022-11-22T22:16:54.017Z,99662.96
2022-11-22T22:19:40.817Z,99656.57
2022-11-22T22:22:40.507Z,99656.62
2022-11-22T22:25:23.898Z,99661.63
2022-11-22T22:28:16.412Z,99665.15
2022-11-22T22:30:53.122Z,99666.63
2022-11-22T22:33:24.907Z,99669.66
2022-11-22T22:36:04.187Z,99666.48
2022-11-22T22:38:39.196Z,99663.58
2022-11-22T22:41:11.078Z,99660.93
2022-11-22T22:43:44.877Z,99658.98
2022-11-22T22:46:14.733Z,99656.30
2022-11-22T22:48:45.747Z,99655.59
2022-11-22T22:51:31.931Z,99655.17
2022-11-22T22:54:11.268Z,99646.61
2022-11-22T22:56:42.696Z,99644.95
2022-11-22T22:59:11.919Z,99644.29
2022-11-22T23:01:44.085Z,99648.53
2022-11-22T23:04:18.442Z,99648.35
2022-11-22T23:06:47.362Z,99645.92
2022-11-22T23:09:16.211Z,99646.27
2022-11-22T23:12:04.059Z,99645.73
2022-11-22T23:14:33.197Z,99646.02
2022-11-22T23:17:02.354Z,99654.25
2022-11-22T23:19:31.601Z,99653.48
2022-11-22T23:22:01.337Z,99653.28
2022-11-22T23:24:32.257Z,99650.05
2022-11-22T23:27:01.810Z,99645.24
2022-11-22T23:29:31.204Z,99634.64
2022-11-22T23:32:00.617Z,99627.58
2022-11-22T23:34:29.773Z,99628.60
2022-11-22T23:36:58.499Z,99624.84
2022-11-22T23:39:27.536Z,99626.64
2022-11-22T23:41:56.440Z,99625.60
2022-11-22T23:44:25.448Z,99625.68
2022-11-22T23:46:54.581Z,99626.48
2022-11-22T23:49:23.320Z,99632.73
2022-11-22T23:51:52.075Z,99632.61
2022-11-22T23:54:20.631Z,99629.05
2022-11-22T23:56:49.634Z,99623.46
2022-11-22T23:59:21.822Z,99624.38
